Flight Track Log - Related Links

Times and Time Zones

All times are in EST time to prevent confusion due to time zone crossing. See the N7667S flight status page for this flight to view local times or setup timezone preferences in your user account.

Time Position Orientation Groundspeed Altitude Reporting Facility
EST Latitude Longitude Course Direction KTS MPH feet Rate Location/Type
Fri 06:10:18 PM 40.7833 -73.9833 56° Northeast 117 135 1,800  Level New York TRACON
Fri 06:11:18 PM 40.8167 -73.9667 21° North 139 160 2,100 150 Climbing New York TRACON
Fri 06:12:18 PM 40.8667 -73.9333 27° Northeast 162 186 2,100 350 Level New York TRACON
Fri 06:13:18 PM 40.9000 -73.9000 37° Northeast 155 178 2,800 800 Climbing New York TRACON
Fri 06:14:18 PM 40.9333 -73.8667 37° Northeast 160 184 3,700 947 Climbing New York TRACON
Fri 06:15:00 PM 40.8830 -73.6383 56° Northeast  Level FlightAware Approximate
Fri 06:15:12 PM 40.9667 -73.8333 37° Northeast 169 194 4,600  Level New York TRACON
Fri 06:16:12 PM 41.0000 -73.7833 49° Northeast 188 216 5,100 238 Climbing New York TRACON
Fri 06:17:18 PM 41.0167 -73.7167 72° East 197 227 5,100  Level New York TRACON
Fri 06:18:18 PM 41.0333 -73.6500 72° East 188 216 5,100  Level New York TRACON
Fri 06:19:18 PM 41.0500 -73.5833 72° East 191 220 5,100  Level New York TRACON
Fri 06:20:18 PM 41.0667 -73.5167 72° East 190 219 5,100  Level New York TRACON
Fri 06:21:18 PM 41.0833 -73.4500 72° East 190 219 5,100  Level New York TRACON
Fri 06:22:18 PM 41.0833 -73.3833 90° East 185 213 5,100  Level New York TRACON
Fri 06:23:18 PM 41.0833 -73.3167 90° East 176 203 5,100  Level New York TRACON
Fri 06:24:18 PM 41.0667 -73.2500 108° East 174 200 5,100  Level New York TRACON
Fri 06:25:18 PM 41.0667 -73.2000 90° East 175 201 5,100  Level New York TRACON
Fri 06:26:18 PM 41.0500 -73.1333 108° East 174 200 5,100  Level New York TRACON
Fri 06:27:24 PM 41.0500 -73.0667 90° East 174 200 5,100  Level New York TRACON
Fri 06:28:24 PM 41.0500 -73.0000 90° East 176 203 5,100  Level New York TRACON
Fri 06:29:24 PM 41.0333 -72.9333 108° East 173 199 5,100  Level New York TRACON
Fri 06:30:24 PM 41.0333 -72.8667 90° East 171 197 5,100  Level New York TRACON
Fri 06:31:18 PM 41.0167 -72.8167 114° Southeast 174 200 5,100 -250 Level New York TRACON
Fri 06:32:24 PM 41.0000 -72.7500 108° East 173 199 4,600 -619 Descending New York TRACON
Fri 06:33:24 PM 41.0000 -72.6833 90° East 175 201 3,800 -800 Descending New York TRACON
Fri 06:34:24 PM 40.9833 -72.6333 114° Southeast 167 192 3,000 -750 Descending New York TRACON
Fri 06:35:24 PM 40.9667 -72.5667 108° East 169 194 2,300 -450 Descending New York TRACON
Fri 06:36:24 PM 40.9500 -72.5000 108° East 171 197 2,100 -100 Descending New York TRACON
Fri 06:37:24 PM 40.9500 -72.4500 90° East 169 194 2,100 18 Level New York TRACON
Fri 07:08:54 PM 41.0167 -72.3833 304° West 102 117 2,700 12 Climbing New York TRACON
Fri 07:09:54 PM 41.0167 -72.4167 270° West 112 129 2,500 -100 Descending New York TRACON
Fri 07:10:54 PM 41.0167 -72.4500 270° West 108 124 2,500  Level New York TRACON
Fri 07:12:00 PM 41.0167 -72.5000 270° West 107 123 2,500  Level New York TRACON

Login

Don't have an account? Register now (free) for customized features, flight alerts, and more!